Time;durP1;ratioP1;P1;durP2;ratioP2;P2;SDS_P1;SDS_P2;PMS_P1;PMS_P2;Temp;Humidity;BMP_temperature;BMP_pressure;BME280_temperature;BME280_humidity;BME280_pressure;Samples;Min_cycle;Max_cycle;Signal;HPM_P1;HPM_P2
2021/05/27 00:01:47;;;;;;;8.95;8.02;;;11.10;93.60;;;;;;4981330;28;20553;-81
2021/05/27 00:04:12;;;;;;;8.82;7.82;;;11.10;93.80;;;;;;4963909;28;20061;-81
2021/05/27 00:06:38;;;;;;;11.52;7.38;;;11.10;93.50;;;;;;4962541;28;20486;-81
2021/05/27 00:09:04;;;;;;;10.82;7.90;;;11.10;93.90;;;;;;4982811;28;20494;-81
2021/05/27 00:11:31;;;;;;;9.85;7.68;;;11.10;93.80;;;;;;4978992;28;20045;-81
2021/05/27 00:13:56;;;;;;;8.90;6.55;;;11.10;93.80;;;;;;4978464;28;20453;-81
2021/05/27 00:16:22;;;;;;;7.00;5.80;;;11.20;93.90;;;;;;4962506;28;20026;-81
2021/05/27 00:18:52;;;;;;;9.70;6.13;;;11.10;93.80;;;;;;4983845;28;20030;-81
2021/05/27 00:21:18;;;;;;;10.55;9.45;;;11.10;94.00;;;;;;4987403;28;20022;-81
2021/05/27 00:23:44;;;;;;;8.77;6.47;;;11.10;93.80;;;;;;4976960;28;20038;-81
2021/05/27 00:26:10;;;;;;;9.68;6.10;;;11.10;94.00;;;;;;4969670;28;20026;-80
2021/05/27 00:28:35;;;;;;;8.85;5.50;;;11.10;94.10;;;;;;4965176;28;20074;-81
2021/05/27 00:31:01;;;;;;;9.38;6.00;;;11.10;94.30;;;;;;4978986;28;20398;-81
2021/05/27 00:33:26;;;;;;;8.02;7.07;;;11.10;94.10;;;;;;4992645;28;20633;-81
2021/05/27 00:35:52;;;;;;;10.32;8.05;;;11.10;94.50;;;;;;4996782;28;20022;-81
2021/05/27 00:38:17;;;;;;;6.47;4.60;;;11.00;94.30;;;;;;4972400;28;20022;-81
2021/05/27 00:40:43;;;;;;;12.73;8.25;;;11.10;94.40;;;;;;4978430;28;20031;-81
2021/05/27 00:43:08;;;;;;;9.68;6.13;;;11.10;94.20;;;;;;4959522;28;20306;-80
2021/05/27 00:45:34;;;;;;;10.32;7.70;;;11.10;94.20;;;;;;4990130;28;20039;-81
2021/05/27 00:47:59;;;;;;;12.25;7.47;;;11.10;94.20;;;;;;4979493;28;20030;-81
2021/05/27 00:50:25;;;;;;;11.20;9.32;;;11.10;94.10;;;;;;4971287;28;20121;-81
2021/05/27 00:52:51;;;;;;;6.65;5.82;;;11.00;94.20;;;;;;4988997;28;20096;-81
2021/05/27 00:55:18;;;;;;;9.20;6.72;;;11.00;94.30;;;;;;4963580;28;20029;-81
2021/05/27 00:57:44;;;;;;;12.63;9.30;;;11.00;94.60;;;;;;4992048;28;20038;-81
2021/05/27 01:00:11;;;;;;;9.00;6.72;;;11.00;94.30;;;;;;4960432;28;20440;-81
2021/05/27 01:02:37;;;;;;;11.98;9.25;;;11.00;94.10;;;;;;4982141;28;20034;-81
2021/05/27 01:05:04;;;;;;;11.02;7.10;;;11.00;94.30;;;;;;4980016;28;20493;-81
2021/05/27 01:07:29;;;;;;;13.48;9.57;;;11.00;94.30;;;;;;4981185;28;20148;-81
2021/05/27 01:09:55;;;;;;;17.00;11.73;;;11.00;94.50;;;;;;4996239;28;20618;-81
2021/05/27 01:12:20;;;;;;;11.45;6.63;;;11.00;94.30;;;;;;4966872;28;20533;-81
2021/05/27 01:17:30;;;;;;;18.63;13.05;;;11.00;94.40;;;;;;4998719;28;20052;-81
2021/05/27 01:19:56;;;;;;;16.88;11.32;;;11.00;94.10;;;;;;4980666;28;20478;-81
2021/05/27 01:22:21;;;;;;;12.13;8.52;;;11.00;94.10;;;;;;4995516;28;20480;-81
2021/05/27 01:24:47;;;;;;;18.52;9.50;;;11.10;94.30;;;;;;4996590;28;20036;-81
2021/05/27 01:27:13;;;;;;;13.35;6.70;;;11.10;94.30;;;;;;4968473;28;20040;-81
2021/05/27 01:29:41;;;;;;;15.02;10.93;;;11.10;94.50;;;;;;4972455;28;20026;-81
2021/05/27 01:32:06;;;;;;;11.82;7.22;;;11.00;94.40;;;;;;4973564;28;20035;-81
2021/05/27 01:34:32;;;;;;;19.80;10.63;;;11.10;94.70;;;;;;4984378;28;20125;-81
2021/05/27 01:36:57;;;;;;;12.25;7.07;;;11.10;94.50;;;;;;4991554;28;20030;-81
2021/05/27 01:39:23;;;;;;;11.82;7.20;;;11.10;94.40;;;;;;4985144;28;20430;-81
2021/05/27 01:41:50;;;;;;;18.17;13.55;;;11.10;94.50;;;;;;5002145;28;20519;-80
2021/05/27 01:44:15;;;;;;;10.95;8.60;;;11.00;94.40;;;;;;4998042;28;20097;-81
2021/05/27 01:46:41;;;;;;;12.80;6.57;;;11.00;94.60;;;;;;4991732;28;20042;-81
2021/05/27 01:49:06;;;;;;;18.80;12.52;;;11.10;94.50;;;;;;4974488;28;20084;-81
2021/05/27 01:51:32;;;;;;;18.50;10.70;;;11.00;94.50;;;;;;4996352;28;20072;-81
2021/05/27 01:53:57;;;;;;;14.63;11.30;;;11.00;94.60;;;;;;4986789;28;20049;-81
2021/05/27 01:56:23;;;;;;;12.43;9.32;;;11.00;94.50;;;;;;4968193;28;20076;-81
2021/05/27 01:58:49;;;;;;;17.27;14.05;;;11.00;94.70;;;;;;4995393;28;20029;-81
2021/05/27 02:01:14;;;;;;;14.38;11.18;;;10.90;94.40;;;;;;4968445;28;20050;-81
2021/05/27 02:03:40;;;;;;;13.23;8.25;;;11.00;94.70;;;;;;4982078;28;20026;-81
2021/05/27 02:06:05;;;;;;;18.75;10.57;;;10.90;94.50;;;;;;4984125;28;20034;-81
2021/05/27 02:08:31;;;;;;;15.15;10.00;;;11.00;94.60;;;;;;4970581;28;20029;-81
2021/05/27 02:10:56;;;;;;;13.07;9.70;;;11.00;94.50;;;;;;5001980;28;20026;-81
2021/05/27 02:13:23;;;;;;;11.25;8.32;;;10.90;94.80;;;;;;4969461;28;20452;-81
2021/05/27 02:15:48;;;;;;;11.95;8.13;;;10.90;94.80;;;;;;4997574;28;20038;-80
2021/05/27 02:18:15;;;;;;;7.28;5.07;;;10.90;94.80;;;;;;5002698;28;20416;-81
2021/05/27 02:20:40;;;;;;;17.20;10.93;;;10.80;94.90;;;;;;4966956;28;20030;-80
2021/05/27 02:23:06;;;;;;;11.90;7.65;;;10.80;94.80;;;;;;4987721;28;20470;-80
2021/05/27 02:25:31;;;;;;;7.47;6.30;;;10.80;95.40;;;;;;4970015;28;20035;-79
2021/05/27 02:27:57;;;;;;;11.70;8.10;;;10.80;95.00;;;;;;5003593;28;20422;-80
2021/05/27 02:30:24;;;;;;;10.73;9.40;;;10.70;95.20;;;;;;4989714;28;20026;-81
2021/05/27 02:32:49;;;;;;;12.73;8.98;;;10.80;95.20;;;;;;4986432;28;20530;-80
2021/05/27 02:35:15;;;;;;;13.07;8.57;;;10.70;95.20;;;;;;4989331;28;20046;-80
2021/05/27 02:37:40;;;;;;;11.93;8.75;;;10.70;95.10;;;;;;4982200;28;20034;-80
2021/05/27 02:40:06;;;;;;;19.45;11.70;;;10.80;95.30;;;;;;4973605;28;20038;-78
2021/05/27 02:42:32;;;;;;;13.25;9.23;;;10.70;95.10;;;;;;4981349;28;20038;-78
2021/05/27 02:44:57;;;;;;;13.05;8.27;;;10.70;95.60;;;;;;4989058;28;20060;-78
2021/05/27 02:47:24;;;;;;;10.88;7.07;;;10.70;95.30;;;;;;4987059;28;20444;-77
2021/05/27 02:49:50;;;;;;;9.70;8.68;;;10.60;95.30;;;;;;4997449;28;20518;-78
2021/05/27 02:52:15;;;;;;;14.30;11.35;;;10.60;95.30;;;;;;4980943;28;20033;-80
2021/05/27 02:54:41;;;;;;;17.08;7.22;;;10.60;95.40;;;;;;4980504;28;20126;-81
2021/05/27 02:57:06;;;;;;;13.05;9.73;;;10.60;95.60;;;;;;5000034;28;20036;-81
2021/05/27 02:59:32;;;;;;;12.82;8.98;;;10.60;95.60;;;;;;4984370;28;20037;-80
2021/05/27 03:01:57;;;;;;;10.55;5.82;;;10.50;95.80;;;;;;4984838;28;20038;-80
2021/05/27 03:04:23;;;;;;;17.65;10.98;;;10.50;95.70;;;;;;4997768;28;20045;-80
2021/05/27 03:06:49;;;;;;;13.77;10.15;;;10.50;95.60;;;;;;4993498;28;20358;-80
2021/05/27 03:09:14;;;;;;;13.40;6.18;;;10.50;95.70;;;;;;4983455;28;20034;-81
2021/05/27 03:11:40;;;;;;;18.67;12.50;;;10.50;95.60;;;;;;4985158;28;20030;-80
2021/05/27 03:14:05;;;;;;;14.15;10.20;;;10.50;95.60;;;;;;4981028;28;20500;-80
2021/05/27 03:16:31;;;;;;;15.90;10.70;;;10.50;95.50;;;;;;4994301;28;20508;-80
2021/05/27 03:18:56;;;;;;;11.45;6.15;;;10.40;95.40;;;;;;5000020;28;20077;-81
2021/05/27 03:21:22;;;;;;;14.48;9.85;;;10.40;95.70;;;;;;4997160;28;20077;-80
2021/05/27 03:23:47;;;;;;;22.92;13.18;;;10.50;95.60;;;;;;4999888;28;20470;-80
2021/05/27 03:26:14;;;;;;;22.33;12.82;;;10.40;95.40;;;;;;4967683;28;20022;-81
2021/05/27 03:28:40;;;;;;;27.63;15.02;;;10.40;95.50;;;;;;4970831;28;20084;-81
2021/05/27 03:31:05;;;;;;;22.92;13.73;;;10.30;95.40;;;;;;4985975;28;20025;-80
2021/05/27 03:33:31;;;;;;;17.05;11.38;;;10.30;95.30;;;;;;4985114;28;20465;-80
2021/05/27 03:35:57;;;;;;;23.15;15.23;;;10.30;95.50;;;;;;4998008;28;20022;-80
2021/05/27 03:38:22;;;;;;;25.40;17.10;;;10.30;95.40;;;;;;4979916;28;20030;-81
2021/05/27 03:40:48;;;;;;;29.30;16.08;;;10.20;95.60;;;;;;4999413;28;20034;-80
2021/05/27 03:43:13;;;;;;;29.20;16.40;;;10.30;95.40;;;;;;4966373;28;20040;-80
2021/05/27 03:45:39;;;;;;;37.35;20.27;;;10.20;95.40;;;;;;4999145;28;20045;-80
2021/05/27 03:48:05;;;;;;;32.25;18.83;;;10.20;95.40;;;;;;4982980;28;20026;-80
2021/05/27 03:50:30;;;;;;;30.30;16.90;;;10.20;95.50;;;;;;4976834;28;20133;-80
2021/05/27 03:52:58;;;;;;;31.65;15.70;;;10.20;95.60;;;;;;4981904;28;20030;-80
2021/05/27 03:55:23;;;;;;;38.75;25.27;;;10.20;95.30;;;;;;4996764;28;20397;-80
2021/05/27 03:57:49;;;;;;;43.33;23.00;;;10.00;95.70;;;;;;4985797;28;20042;-80
2021/05/27 04:03:03;;;;;;;30.25;17.67;;;10.10;95.70;;;;;;4987215;28;20113;-80
2021/05/27 04:08:14;;;;;;;26.45;17.15;;;10.20;95.80;;;;;;4997760;28;20045;-80
2021/05/27 04:10:39;;;;;;;26.63;17.20;;;10.10;95.90;;;;;;4970995;28;20062;-79
2021/05/27 04:13:05;;;;;;;32.95;18.33;;;10.10;96.00;;;;;;4968163;28;20116;-79
2021/05/27 04:15:34;;;;;;;30.98;17.95;;;10.10;95.60;;;;;;4970116;28;20600;-80
2021/05/27 04:18:09;;;;;;;21.27;13.20;;;10.10;95.60;;;;;;4981741;28;20034;-80
2021/05/27 04:20:36;;;;;;;26.45;16.55;;;10.10;95.90;;;;;;4996038;28;20528;-79
2021/05/27 04:23:06;;;;;;;29.98;17.75;;;10.00;95.60;;;;;;4986161;28;20139;-79
2021/05/27 04:25:31;;;;;;;34.65;19.92;;;10.10;95.70;;;;;;4985035;28;20034;-79
2021/05/27 04:27:58;;;;;;;31.25;16.95;;;10.10;95.40;;;;;;4972708;28;20018;-80
2021/05/27 04:30:24;;;;;;;37.15;20.10;;;10.00;95.60;;;;;;4975302;28;20039;-79
2021/05/27 04:33:20;;;;;;;31.95;16.33;;;10.00;95.70;;;;;;4987226;28;20083;-79
2021/05/27 04:35:46;;;;;;;35.67;18.60;;;10.10;95.60;;;;;;5000872;28;20462;-80
2021/05/27 04:38:13;;;;;;;24.85;15.07;;;10.10;95.30;;;;;;4998190;28;20054;-80
2021/05/27 04:40:41;;;;;;;26.05;16.17;;;10.10;95.40;;;;;;4980164;28;20038;-80
2021/05/27 04:43:06;;;;;;;32.33;18.77;;;10.10;95.50;;;;;;4977786;28;20472;-80
2021/05/27 04:45:32;;;;;;;28.30;17.42;;;10.10;95.30;;;;;;4966184;28;20453;-80
2021/05/27 04:47:58;;;;;;;24.05;13.98;;;10.00;95.40;;;;;;4999274;28;20342;-80
2021/05/27 04:50:24;;;;;;;28.55;14.93;;;10.00;95.60;;;;;;4976913;28;20539;-80
2021/05/27 04:52:50;;;;;;;33.78;18.63;;;10.00;95.80;;;;;;4979198;28;20038;-80
2021/05/27 04:55:16;;;;;;;30.55;14.55;;;10.00;95.50;;;;;;4303059;28;10000378;-80
2021/05/27 04:57:41;;;;;;;30.25;16.98;;;10.10;95.80;;;;;;4993284;28;20371;-80
2021/05/27 05:00:10;;;;;;;32.83;18.60;;;10.10;95.60;;;;;;4980310;28;20489;-80
2021/05/27 05:02:36;;;;;;;29.75;15.88;;;10.10;95.50;;;;;;4978614;28;20030;-80
2021/05/27 05:05:01;;;;;;;20.02;10.63;;;10.00;96.00;;;;;;4983880;28;20030;-80
2021/05/27 05:07:27;;;;;;;27.17;14.55;;;10.00;95.80;;;;;;4979964;28;20169;-80
2021/05/27 05:09:52;;;;;;;29.90;17.58;;;10.00;95.60;;;;;;4995316;28;20406;-80
2021/05/27 05:12:18;;;;;;;20.50;11.45;;;9.90;96.00;;;;;;4983810;28;20042;-80
2021/05/27 05:14:43;;;;;;;25.33;13.85;;;9.90;96.40;;;;;;4982209;28;20061;-80
2021/05/27 05:17:09;;;;;;;22.85;14.23;;;10.00;96.00;;;;;;4982776;28;20022;-81
2021/05/27 05:19:34;;;;;;;25.17;13.50;;;10.00;95.80;;;;;;4980175;28;20034;-80
2021/05/27 05:22:00;;;;;;;17.92;9.57;;;9.90;96.40;;;;;;4984000;28;20038;-80
2021/05/27 05:24:26;;;;;;;28.83;16.75;;;9.90;96.40;;;;;;4984945;28;20038;-80
2021/05/27 05:26:51;;;;;;;20.58;10.50;;;9.90;96.10;;;;;;4966705;28;20382;-80
2021/05/27 05:29:17;;;;;;;27.80;13.05;;;10.00;95.70;;;;;;4987773;28;20030;-80
2021/05/27 05:31:42;;;;;;;24.50;14.32;;;10.00;95.80;;;;;;4966074;28;20038;-81
2021/05/27 05:34:08;;;;;;;32.50;17.08;;;10.00;95.80;;;;;;4982013;28;20026;-80
2021/05/27 05:36:33;;;;;;;38.95;20.30;;;10.00;95.90;;;;;;4983455;28;20041;-80
2021/05/27 05:38:59;;;;;;;25.38;15.77;;;10.00;95.80;;;;;;4971122;28;20031;-80
2021/05/27 05:41:24;;;;;;;27.88;14.10;;;10.00;96.10;;;;;;4979343;28;20399;-79
2021/05/27 05:43:50;;;;;;;22.83;14.63;;;10.00;95.90;;;;;;4963106;28;20030;-80
2021/05/27 05:46:16;;;;;;;33.20;17.70;;;10.10;95.90;;;;;;4992124;28;20124;-79
2021/05/27 05:48:41;;;;;;;33.67;14.85;;;10.10;95.90;;;;;;4980845;28;20192;-79
2021/05/27 05:51:07;;;;;;;29.70;16.42;;;10.10;96.00;;;;;;4993502;28;20593;-79
2021/05/27 05:53:33;;;;;;;21.25;13.80;;;10.10;95.80;;;;;;4998726;28;20084;-79
2021/05/27 05:55:59;;;;;;;22.67;13.95;;;10.10;95.80;;;;;;4972228;28;20030;-79
2021/05/27 05:58:25;;;;;;;20.98;9.93;;;10.10;95.90;;;;;;4975346;28;20037;-79
2021/05/27 06:00:51;;;;;;;24.83;13.73;;;10.10;95.90;;;;;;4975871;28;20034;-80
2021/05/27 06:03:17;;;;;;;21.95;15.70;;;10.10;95.90;;;;;;4995205;28;20053;-80
2021/05/27 06:05:43;;;;;;;19.58;12.48;;;10.10;96.10;;;;;;4976800;28;20038;-79
2021/05/27 06:08:08;;;;;;;20.35;12.05;;;10.20;96.00;;;;;;4968374;28;20121;-79
2021/05/27 06:10:34;;;;;;;18.70;10.43;;;10.20;96.00;;;;;;4981589;28;20034;-80
2021/05/27 06:13:00;;;;;;;22.58;12.50;;;10.20;96.10;;;;;;4987587;28;20049;-79
2021/05/27 06:15:26;;;;;;;16.55;8.95;;;10.20;96.10;;;;;;4968869;28;20498;-79
2021/05/27 06:17:52;;;;;;;28.60;14.85;;;10.20;96.30;;;;;;4985012;28;20096;-79
2021/05/27 06:20:21;;;;;;;27.52;14.77;;;10.30;96.10;;;;;;4995144;28;20555;-80
2021/05/27 06:22:50;;;;;;;33.20;16.20;;;10.30;96.20;;;;;;4999009;28;20577;-79
2021/05/27 06:25:16;;;;;;;32.10;17.83;;;10.30;96.30;;;;;;4997076;28;20456;-80
2021/05/27 06:27:41;;;;;;;23.20;13.55;;;10.40;96.20;;;;;;4982215;28;20100;-79
2021/05/27 06:30:08;;;;;;;21.75;11.93;;;10.40;96.00;;;;;;5002312;28;20072;-80
2021/05/27 06:32:37;;;;;;;19.15;11.80;;;10.50;95.90;;;;;;4982726;28;20026;-79
2021/05/27 06:35:07;;;;;;;25.70;13.55;;;10.50;96.00;;;;;;4972143;28;20095;-79
2021/05/27 06:37:36;;;;;;;11.85;8.18;;;10.50;96.10;;;;;;4985978;28;20045;-79
2021/05/27 06:40:04;;;;;;;16.58;10.13;;;10.50;96.10;;;;;;5001846;28;20199;-79
2021/05/27 06:42:29;;;;;;;23.13;14.65;;;10.50;96.00;;;;;;4992941;28;20065;-79
2021/05/27 06:44:55;;;;;;;27.60;18.67;;;10.50;96.20;;;;;;5000200;28;20053;-79
2021/05/27 06:47:20;;;;;;;32.92;17.27;;;10.50;96.10;;;;;;4982639;28;20113;-79
2021/05/27 06:49:46;;;;;;;24.15;14.63;;;10.60;96.40;;;;;;4972314;28;20461;-79
2021/05/27 06:52:11;;;;;;;20.00;14.38;;;10.50;96.10;;;;;;4976080;28;20087;-79
2021/05/27 06:54:37;;;;;;;25.40;14.52;;;10.50;96.30;;;;;;4979202;28;20102;-79
2021/05/27 06:57:03;;;;;;;19.00;10.82;;;10.50;96.30;;;;;;4971053;28;20032;-79
2021/05/27 06:59:28;;;;;;;20.80;11.68;;;10.50;96.10;;;;;;4981222;28;20125;-79
2021/05/27 07:01:54;;;;;;;24.08;13.93;;;10.50;96.10;;;;;;4998342;28;20049;-79
2021/05/27 07:04:19;;;;;;;32.55;16.02;;;10.50;95.90;;;;;;4965043;28;20058;-79
2021/05/27 07:06:45;;;;;;;25.45;16.35;;;10.60;95.90;;;;;;4982992;28;20757;-79
2021/05/27 07:09:11;;;;;;;25.65;17.25;;;10.50;95.90;;;;;;4984490;28;20065;-79
2021/05/27 07:11:37;;;;;;;17.92;10.57;;;10.50;95.90;;;;;;4998345;28;20393;-79
2021/05/27 07:14:02;;;;;;;27.33;17.83;;;10.50;96.00;;;;;;4972476;28;20030;-79
2021/05/27 07:16:28;;;;;;;18.85;12.25;;;10.50;96.10;;;;;;4977448;28;20389;-79
2021/05/27 07:18:54;;;;;;;26.13;13.48;;;10.50;96.00;;;;;;4996940;28;20502;-79
2021/05/27 07:21:20;;;;;;;21.58;14.10;;;10.50;96.10;;;;;;4997964;28;20114;-79
2021/05/27 07:23:46;;;;;;;21.80;13.25;;;10.40;96.10;;;;;;4997057;28;20038;-79
2021/05/27 07:26:11;;;;;;;23.13;12.82;;;10.40;96.00;;;;;;4972711;28;20510;-79
2021/05/27 07:28:37;;;;;;;21.92;14.00;;;10.40;96.00;;;;;;4982145;28;20030;-79
2021/05/27 07:31:03;;;;;;;23.42;15.35;;;10.40;96.00;;;;;;4968740;28;20022;-79
2021/05/27 07:33:28;;;;;;;20.05;11.85;;;10.50;96.10;;;;;;4981740;28;20105;-79
2021/05/27 07:35:54;;;;;;;25.73;15.52;;;10.50;96.00;;;;;;4998311;28;20116;-79
2021/05/27 07:38:21;;;;;;;24.65;13.85;;;10.50;96.00;;;;;;4970176;28;20057;-79
2021/05/27 07:40:47;;;;;;;29.13;10.43;;;10.50;96.00;;;;;;4981418;28;20029;-79
2021/05/27 07:43:13;;;;;;;16.98;10.70;;;10.50;95.90;;;;;;4984706;28;20438;-79
2021/05/27 07:45:39;;;;;;;15.07;9.65;;;10.50;96.00;;;;;;4993956;28;20030;-79
2021/05/27 07:48:05;;;;;;;10.90;6.20;;;10.50;96.10;;;;;;4977902;28;20042;-79
2021/05/27 07:50:32;;;;;;;10.68;6.32;;;10.50;96.10;;;;;;4977165;28;20037;-79
2021/05/27 07:52:57;;;;;;;8.07;6.25;;;10.50;96.00;;;;;;4988984;28;20493;-79
2021/05/27 07:55:24;;;;;;;21.75;12.35;;;10.60;96.10;;;;;;4965910;28;20089;-79
2021/05/27 07:57:49;;;;;;;14.68;9.75;;;10.60;96.20;;;;;;4986277;28;20030;-78
2021/05/27 08:00:15;;;;;;;19.00;10.95;;;10.60;96.10;;;;;;4984074;28;20038;-79
2021/05/27 08:02:43;;;;;;;16.58;9.60;;;10.70;96.10;;;;;;4994576;28;20038;-80
2021/05/27 08:05:09;;;;;;;19.23;9.95;;;10.70;96.30;;;;;;4997259;28;20066;-79
2021/05/27 08:07:35;;;;;;;11.13;7.32;;;10.70;96.00;;;;;;4976159;28;20037;-79
2021/05/27 08:10:05;;;;;;;14.27;6.57;;;10.70;96.10;;;;;;4980334;28;20260;-79
2021/05/27 08:12:30;;;;;;;10.25;6.47;;;10.70;96.10;;;;;;4970614;28;20190;-79
2021/05/27 08:14:57;;;;;;;11.48;6.78;;;10.60;96.10;;;;;;4962449;28;20042;-79
2021/05/27 08:17:23;;;;;;;13.07;6.45;;;10.60;96.20;;;;;;4998639;28;20041;-79
2021/05/27 08:19:48;;;;;;;14.07;9.23;;;10.50;96.40;;;;;;4979788;28;20053;-79
2021/05/27 08:22:16;;;;;;;16.35;7.90;;;10.50;96.40;;;;;;4976072;28;20061;-79
2021/05/27 08:24:42;;;;;;;14.73;7.43;;;10.50;96.40;;;;;;4976070;28;20089;-79
2021/05/27 08:27:07;;;;;;;11.90;6.63;;;10.50;96.30;;;;;;4974709;28;20453;-80
2021/05/27 08:29:33;;;;;;;14.02;7.82;;;10.50;96.40;;;;;;4983114;28;20038;-79
2021/05/27 08:31:58;;;;;;;11.80;6.65;;;10.50;96.40;;;;;;4994209;28;20055;-79
2021/05/27 08:34:24;;;;;;;11.27;7.50;;;10.50;96.50;;;;;;4963913;28;20029;-79
2021/05/27 08:36:49;;;;;;;10.63;6.78;;;10.50;96.50;;;;;;4966393;28;20170;-79
2021/05/27 08:39:16;;;;;;;15.88;7.03;;;10.50;96.40;;;;;;4967987;28;20033;-80
2021/05/27 08:41:41;;;;;;;12.65;7.97;;;10.50;96.60;;;;;;4997966;28;20041;-79
2021/05/27 08:44:07;;;;;;;16.25;7.65;;;10.50;96.60;;;;;;4983713;28;20030;-79
2021/05/27 08:46:32;;;;;;;12.65;8.52;;;10.40;96.50;;;;;;4977499;28;20184;-79
2021/05/27 08:48:59;;;;;;;13.00;6.30;;;10.50;96.60;;;;;;4981860;28;20496;-79
2021/05/27 08:51:25;;;;;;;13.57;7.72;;;10.40;96.60;;;;;;4968627;28;20022;-79
2021/05/27 08:53:56;;;;;;;13.05;5.85;;;10.40;96.40;;;;;;4975957;28;20110;-79
2021/05/27 08:56:22;;;;;;;14.18;7.65;;;10.40;96.60;;;;;;4997902;28;20279;-79
2021/05/27 08:58:48;;;;;;;16.42;9.25;;;10.50;96.50;;;;;;4965321;28;20421;-79
2021/05/27 09:01:13;;;;;;;11.43;4.80;;;10.50;96.70;;;;;;4977451;28;20033;-79
2021/05/27 09:03:40;;;;;;;16.55;7.68;;;10.50;96.80;;;;;;4975617;28;20044;-79
2021/05/27 09:06:05;;;;;;;14.18;8.15;;;10.40;96.70;;;;;;4955740;28;20034;-80
2021/05/27 09:08:33;;;;;;;13.98;8.88;;;10.40;96.60;;;;;;4962084;28;20109;-79
2021/05/27 09:11:03;;;;;;;12.52;7.32;;;10.50;96.70;;;;;;4980008;28;20030;-79
2021/05/27 09:13:29;;;;;;;12.18;6.72;;;10.50;96.70;;;;;;4983574;28;20124;-79
2021/05/27 09:16:07;;;;;;;20.35;9.32;;;10.50;96.90;;;;;;4990021;28;20501;-79
2021/05/27 09:18:34;;;;;;;11.55;6.30;;;10.50;96.80;;;;;;4989472;28;20500;-79
2021/05/27 09:21:00;;;;;;;11.35;8.05;;;10.40;96.90;;;;;;4979928;28;20087;-79
2021/05/27 09:23:26;;;;;;;14.02;9.10;;;10.50;96.70;;;;;;4995646;28;20034;-79
2021/05/27 09:26:14;;;;;;;6.55;3.67;;;10.50;96.70;;;;;;4991733;28;20030;-79
2021/05/27 09:28:39;;;;;;;13.40;8.32;;;10.50;96.70;;;;;;4956833;28;20082;-79
2021/05/27 09:31:07;;;;;;;16.42;9.32;;;10.60;96.80;;;;;;4962124;28;20025;-80
2021/05/27 09:33:37;;;;;;;14.30;6.90;;;10.50;96.80;;;;;;4985931;28;20030;-79
2021/05/27 09:36:04;;;;;;;19.33;8.98;;;10.60;97.00;;;;;;4976097;28;20048;-79
2021/05/27 09:38:31;;;;;;;12.90;6.07;;;10.60;97.00;;;;;;4963589;28;20039;-79
2021/05/27 09:40:56;;;;;;;10.48;5.60;;;10.60;97.10;;;;;;4975734;28;20031;-79
2021/05/27 09:43:23;;;;;;;14.90;7.85;;;10.60;97.10;;;;;;4974762;28;20038;-79
2021/05/27 09:46:06;;;;;;;8.40;5.10;;;10.70;97.30;;;;;;4983304;28;20042;-79
2021/05/27 09:48:32;;;;;;;17.67;8.98;;;10.90;97.40;;;;;;4995803;28;20402;-79
2021/05/27 09:50:59;;;;;;;15.02;9.05;;;11.10;97.40;;;;;;4982940;28;20052;-79
2021/05/27 09:53:26;;;;;;;15.30;8.48;;;11.20;97.00;;;;;;4980152;28;20033;-79
2021/05/27 09:55:53;;;;;;;13.57;7.90;;;11.30;97.10;;;;;;4995702;28;20038;-79
2021/05/27 09:58:18;;;;;;;16.08;10.20;;;11.30;97.00;;;;;;4985802;28;20038;-79
2021/05/27 10:00:44;;;;;;;17.73;9.48;;;11.30;97.20;;;;;;4951264;28;20099;-79
2021/05/27 10:03:28;;;;;;;11.93;7.45;;;11.30;97.20;;;;;;4968072;28;20034;-79
2021/05/27 10:05:55;;;;;;;11.30;7.18;;;11.30;97.30;;;;;;5000645;28;20038;-79
2021/05/27 10:08:20;;;;;;;9.63;6.85;;;11.30;97.40;;;;;;4994234;28;20117;-79
2021/05/27 10:10:47;;;;;;;10.75;6.88;;;11.30;97.20;;;;;;4973054;28;20121;-79
2021/05/27 10:13:14;;;;;;;9.93;5.80;;;11.40;97.10;;;;;;4993462;28;20554;-79
2021/05/27 10:15:43;;;;;;;10.18;5.70;;;11.40;96.90;;;;;;4967360;28;20501;-78
2021/05/27 10:18:09;;;;;;;10.43;6.40;;;11.40;97.00;;;;;;4985920;28;20034;-78
2021/05/27 10:20:34;;;;;;;10.05;6.40;;;11.50;97.30;;;;;;4994069;28;20448;-78
2021/05/27 10:23:01;;;;;;;8.38;5.72;;;11.50;97.40;;;;;;4996405;28;20034;-78
2021/05/27 10:25:27;;;;;;;10.27;6.97;;;11.40;96.90;;;;;;4972885;28;20449;-78
2021/05/27 10:27:54;;;;;;;12.50;7.47;;;11.60;97.30;;;;;;4994283;28;20042;-79
2021/05/27 10:30:20;;;;;;;8.65;6.05;;;11.60;96.90;;;;;;4966795;28;20083;-78
2021/05/27 10:32:49;;;;;;;12.15;7.45;;;11.60;97.00;;;;;;4979601;28;20046;-78
2021/05/27 10:35:14;;;;;;;10.30;7.32;;;11.70;97.10;;;;;;4965272;28;20110;-78
2021/05/27 10:37:42;;;;;;;9.75;7.45;;;11.70;96.90;;;;;;4973228;28;20137;-79
2021/05/27 10:40:11;;;;;;;10.20;6.53;;;11.70;97.00;;;;;;4998521;28;20026;-79
2021/05/27 10:42:55;;;;;;;16.48;10.30;;;11.70;96.80;;;;;;4996575;28;20041;-78
2021/05/27 10:45:37;;;;;;;13.88;10.27;;;11.70;97.20;;;;;;4994332;28;20401;-80
2021/05/27 10:48:12;;;;;;;10.35;7.28;;;11.60;97.20;;;;;;4980630;28;20428;-79
2021/05/27 10:51:26;;;;;;;16.13;9.63;;;11.60;96.90;;;;;;4990978;28;20566;-79
2021/05/27 10:53:41;;;;;;;11.95;7.90;;;11.50;96.80;;;;;;5000562;28;20119;-79
2021/05/27 10:56:08;;;;;;;7.63;6.22;;;11.50;96.80;;;;;;5000757;28;20073;-81
2021/05/27 10:58:46;;;;;;;16.60;9.20;;;11.50;96.80;;;;;;4979725;28;20133;-77
2021/05/27 11:01:12;;;;;;;10.05;7.53;;;11.30;97.30;;;;;;4992736;28;20031;-81
2021/05/27 11:03:52;;;;;;;12.73;7.53;;;11.40;96.50;;;;;;4991987;28;20545;-80
2021/05/27 11:06:19;;;;;;;13.43;7.32;;;11.30;96.70;;;;;;4982222;28;20571;-80
2021/05/27 11:08:45;;;;;;;14.13;6.60;;;11.30;96.60;;;;;;4967686;28;20077;-80
2021/05/27 11:12:03;;;;;;;13.77;9.60;;;11.30;96.80;;;;;;4993716;28;20040;-80
2021/05/27 11:14:36;;;;;;;13.55;8.40;;;11.30;96.90;;;;;;4978885;28;20054;-78
2021/05/27 11:17:02;;;;;;;11.68;7.15;;;11.30;96.90;;;;;;4997818;28;20030;-78
2021/05/27 11:25:15;;;;;;;11.77;6.20;;;11.40;96.90;;;;;;4996662;28;20038;-79
2021/05/27 11:27:57;;;;;;;14.13;7.22;;;11.40;97.20;;;;;;5002451;28;20038;-80
2021/05/27 11:30:36;;;;;;;13.20;5.53;;;11.40;96.70;;;;;;4994252;28;20034;-80
2021/05/27 11:33:14;;;;;;;8.27;5.43;;;11.40;96.60;;;;;;4994613;28;20497;-80
2021/05/27 11:35:40;;;;;;;9.60;6.75;;;11.40;96.70;;;;;;4997244;28;20038;-79
2021/05/27 11:38:10;;;;;;;8.75;6.30;;;11.30;96.80;;;;;;4995827;28;20046;-79
2021/05/27 11:40:40;;;;;;;16.90;8.90;;;11.30;96.60;;;;;;4983964;28;20430;-79
2021/05/27 11:43:06;;;;;;;14.35;7.93;;;11.30;97.20;;;;;;4969459;28;20505;-79
2021/05/27 11:45:39;;;;;;;7.88;4.90;;;11.30;97.00;;;;;;4967746;28;20113;-79
2021/05/27 11:48:21;;;;;;;7.00;5.20;;;11.30;96.60;;;;;;4995798;28;20038;-79
2021/05/27 11:50:47;;;;;;;7.35;4.53;;;11.30;96.80;;;;;;4993158;28;20445;-79
2021/05/27 11:53:13;;;;;;;8.18;5.07;;;11.20;96.80;;;;;;4991186;28;20137;-79
2021/05/27 11:55:38;;;;;;;14.05;7.97;;;11.20;96.70;;;;;;4992564;28;20053;-80
2021/05/27 11:58:04;;;;;;;15.32;7.45;;;11.20;96.90;;;;;;4967879;28;20575;-80
2021/05/27 12:00:30;;;;;;;13.40;6.82;;;11.10;96.90;;;;;;4977428;28;20048;-80
2021/05/27 12:02:57;;;;;;;13.48;9.10;;;11.20;96.90;;;;;;4985524;28;20037;-79
2021/05/27 12:05:26;;;;;;;15.00;7.97;;;11.20;97.00;;;;;;4977372;28;20520;-80
2021/05/27 12:08:05;;;;;;;9.88;6.75;;;11.20;97.00;;;;;;4977690;28;20401;-79
2021/05/27 12:10:38;;;;;;;9.00;5.85;;;11.20;96.80;;;;;;4982463;28;20449;-80
2021/05/27 12:13:04;;;;;;;16.10;9.05;;;11.30;96.80;;;;;;4985573;28;20493;-80
2021/05/27 12:15:31;;;;;;;14.93;9.85;;;11.20;96.90;;;;;;4992917;28;20031;-81
2021/05/27 12:17:57;;;;;;;12.95;7.35;;;11.20;97.50;;;;;;4968407;28;20031;-80
2021/05/27 12:20:34;;;;;;;10.45;6.75;;;11.10;97.10;;;;;;4970132;28;20518;-80
2021/05/27 12:23:07;;;;;;;11.35;6.45;;;11.20;97.20;;;;;;4983093;28;20485;-80
2021/05/27 12:25:35;;;;;;;14.85;6.60;;;11.20;97.10;;;;;;4982803;28;20030;-79
2021/05/27 12:28:02;;;;;;;19.85;8.70;;;11.20;97.10;;;;;;4975972;28;20042;-80
2021/05/27 12:30:32;;;;;;;17.40;7.45;;;11.30;97.00;;;;;;4963621;28;20041;-80
2021/05/27 12:32:58;;;;;;;23.10;9.35;;;11.40;97.20;;;;;;4975117;28;20058;-80
2021/05/27 12:35:30;;;;;;;14.60;7.25;;;11.40;97.30;;;;;;4973786;28;20065;-80
2021/05/27 12:37:59;;;;;;;15.38;7.85;;;11.50;97.00;;;;;;4995237;28;20022;-79
2021/05/27 12:40:29;;;;;;;25.90;9.60;;;11.50;97.30;;;;;;4995361;28;20022;-80
2021/05/27 12:42:59;;;;;;;13.48;6.47;;;11.60;97.50;;;;;;4989250;28;20335;-79
2021/05/27 12:45:28;;;;;;;11.82;6.72;;;11.60;96.90;;;;;;4969426;28;20038;-79
2021/05/27 12:48:06;;;;;;;16.75;7.53;;;11.70;96.90;;;;;;4997196;28;20087;-79